sensor_id;sensor_type;location;lat;lon;timestamp;P1;durP1;ratioP1;P2;durP2;ratioP2
75684;SDS011;64298;46.050;38.164;2023-03-26T00:00:43;25.00;;;11.13;;
75684;SDS011;64298;46.050;38.164;2023-03-26T00:03:13;34.15;;;11.15;;
75684;SDS011;64298;46.050;38.164;2023-03-26T00:05:41;21.27;;;9.07;;
75684;SDS011;64298;46.050;38.164;2023-03-26T00:08:08;22.55;;;10.15;;
75684;SDS011;64298;46.050;38.164;2023-03-26T00:10:36;24.08;;;10.48;;
75684;SDS011;64298;46.050;38.164;2023-03-26T00:13:03;21.95;;;9.23;;
75684;SDS011;64298;46.050;38.164;2023-03-26T00:15:30;21.80;;;9.70;;
75684;SDS011;64298;46.050;38.164;2023-03-26T00:17:57;22.98;;;9.05;;
75684;SDS011;64298;46.050;38.164;2023-03-26T00:20:27;20.75;;;9.25;;
75684;SDS011;64298;46.050;38.164;2023-03-26T00:22:54;24.65;;;11.02;;
75684;SDS011;64298;46.050;38.164;2023-03-26T00:25:21;25.98;;;10.23;;
75684;SDS011;64298;46.050;38.164;2023-03-26T00:27:48;21.88;;;8.60;;
75684;SDS011;64298;46.050;38.164;2023-03-26T00:30:14;22.58;;;8.55;;
75684;SDS011;64298;46.050;38.164;2023-03-26T00:32:41;20.25;;;8.45;;
75684;SDS011;64298;46.050;38.164;2023-03-26T00:35:07;23.38;;;10.07;;
75684;SDS011;64298;46.050;38.164;2023-03-26T00:37:35;25.02;;;9.38;;
75684;SDS011;64298;46.050;38.164;2023-03-26T00:40:01;22.35;;;9.52;;
75684;SDS011;64298;46.050;38.164;2023-03-26T00:42:31;30.85;;;10.45;;
75684;SDS011;64298;46.050;38.164;2023-03-26T00:44:58;20.17;;;8.63;;
75684;SDS011;64298;46.050;38.164;2023-03-26T00:47:25;21.35;;;9.40;;
75684;SDS011;64298;46.050;38.164;2023-03-26T00:49:52;20.33;;;9.10;;
75684;SDS011;64298;46.050;38.164;2023-03-26T00:52:19;20.95;;;8.68;;
75684;SDS011;64298;46.050;38.164;2023-03-26T00:54:45;19.33;;;8.10;;
75684;SDS011;64298;46.050;38.164;2023-03-26T00:57:12;18.70;;;7.55;;
75684;SDS011;64298;46.050;38.164;2023-03-26T00:59:39;18.23;;;8.95;;
75684;SDS011;64298;46.050;38.164;2023-03-26T01:02:07;21.33;;;9.13;;
75684;SDS011;64298;46.050;38.164;2023-03-26T01:04:38;23.20;;;9.32;;
75684;SDS011;64298;46.050;38.164;2023-03-26T01:07:08;22.85;;;9.70;;
75684;SDS011;64298;46.050;38.164;2023-03-26T01:09:38;19.40;;;7.28;;
75684;SDS011;64298;46.050;38.164;2023-03-26T01:12:13;18.00;;;8.63;;
75684;SDS011;64298;46.050;38.164;2023-03-26T01:14:41;21.52;;;8.90;;
75684;SDS011;64298;46.050;38.164;2023-03-26T01:17:08;20.08;;;8.57;;
75684;SDS011;64298;46.050;38.164;2023-03-26T01:22:18;20.08;;;9.40;;
75684;SDS011;64298;46.050;38.164;2023-03-26T01:24:46;21.42;;;8.25;;
75684;SDS011;64298;46.050;38.164;2023-03-26T01:38:06;18.10;;;7.85;;
75684;SDS011;64298;46.050;38.164;2023-03-26T01:43:35;19.05;;;7.88;;
75684;SDS011;64298;46.050;38.164;2023-03-26T01:46:08;20.30;;;8.70;;
75684;SDS011;64298;46.050;38.164;2023-03-26T01:48:41;23.38;;;10.27;;
75684;SDS011;64298;46.050;38.164;2023-03-26T01:51:09;22.63;;;9.82;;
75684;SDS011;64298;46.050;38.164;2023-03-26T01:53:38;24.52;;;9.60;;
75684;SDS011;64298;46.050;38.164;2023-03-26T01:59:08;21.98;;;8.18;;
75684;SDS011;64298;46.050;38.164;2023-03-26T02:09:52;22.88;;;9.65;;
75684;SDS011;64298;46.050;38.164;2023-03-26T02:12:23;24.67;;;9.82;;
75684;SDS011;64298;46.050;38.164;2023-03-26T02:14:51;20.50;;;8.27;;
75684;SDS011;64298;46.050;38.164;2023-03-26T02:17:19;27.42;;;10.13;;
75684;SDS011;64298;46.050;38.164;2023-03-26T02:19:48;20.02;;;9.07;;
75684;SDS011;64298;46.050;38.164;2023-03-26T02:22:16;22.83;;;9.02;;
75684;SDS011;64298;46.050;38.164;2023-03-26T02:24:44;21.55;;;8.45;;
75684;SDS011;64298;46.050;38.164;2023-03-26T02:27:10;23.58;;;9.85;;
75684;SDS011;64298;46.050;38.164;2023-03-26T02:29:38;29.20;;;10.85;;
75684;SDS011;64298;46.050;38.164;2023-03-26T02:32:07;29.38;;;11.70;;
75684;SDS011;64298;46.050;38.164;2023-03-26T02:34:38;27.15;;;11.27;;
75684;SDS011;64298;46.050;38.164;2023-03-26T02:37:05;30.00;;;11.02;;
75684;SDS011;64298;46.050;38.164;2023-03-26T02:39:32;25.50;;;10.18;;
75684;SDS011;64298;46.050;38.164;2023-03-26T02:42:04;31.30;;;13.07;;
75684;SDS011;64298;46.050;38.164;2023-03-26T02:44:36;25.90;;;10.00;;
75684;SDS011;64298;46.050;38.164;2023-03-26T02:47:07;33.60;;;13.50;;
75684;SDS011;64298;46.050;38.164;2023-03-26T02:49:51;24.08;;;9.70;;
75684;SDS011;64298;46.050;38.164;2023-03-26T02:52:35;35.42;;;13.27;;
75684;SDS011;64298;46.050;38.164;2023-03-26T02:55:02;17.58;;;6.53;;
75684;SDS011;64298;46.050;38.164;2023-03-26T02:57:28;27.83;;;11.32;;
75684;SDS011;64298;46.050;38.164;2023-03-26T02:59:54;31.27;;;11.15;;
75684;SDS011;64298;46.050;38.164;2023-03-26T03:02:34;26.13;;;10.35;;
75684;SDS011;64298;46.050;38.164;2023-03-26T03:05:34;26.38;;;10.23;;
75684;SDS011;64298;46.050;38.164;2023-03-26T03:08:16;31.40;;;12.90;;
75684;SDS011;64298;46.050;38.164;2023-03-26T03:11:01;30.08;;;12.80;;
75684;SDS011;64298;46.050;38.164;2023-03-26T03:13:48;35.28;;;11.93;;
75684;SDS011;64298;46.050;38.164;2023-03-26T03:16:18;27.40;;;9.95;;
75684;SDS011;64298;46.050;38.164;2023-03-26T03:18:44;30.52;;;11.65;;
75684;SDS011;64298;46.050;38.164;2023-03-26T03:21:12;30.02;;;10.25;;
75684;SDS011;64298;46.050;38.164;2023-03-26T03:23:38;28.60;;;11.02;;
75684;SDS011;64298;46.050;38.164;2023-03-26T03:26:23;30.23;;;11.07;;
75684;SDS011;64298;46.050;38.164;2023-03-26T03:28:56;26.80;;;9.30;;
75684;SDS011;64298;46.050;38.164;2023-03-26T03:31:23;34.67;;;11.13;;
75684;SDS011;64298;46.050;38.164;2023-03-26T03:36:40;28.27;;;8.90;;
75684;SDS011;64298;46.050;38.164;2023-03-26T03:39:17;25.23;;;11.20;;
75684;SDS011;64298;46.050;38.164;2023-03-26T03:41:44;32.90;;;11.02;;
75684;SDS011;64298;46.050;38.164;2023-03-26T03:44:13;28.30;;;11.60;;
75684;SDS011;64298;46.050;38.164;2023-03-26T03:46:39;23.25;;;8.20;;
75684;SDS011;64298;46.050;38.164;2023-03-26T03:49:05;19.25;;;8.30;;
75684;SDS011;64298;46.050;38.164;2023-03-26T03:51:35;21.83;;;7.80;;
75684;SDS011;64298;46.050;38.164;2023-03-26T03:54:04;20.17;;;9.18;;
75684;SDS011;64298;46.050;38.164;2023-03-26T03:56:59;23.33;;;10.60;;
75684;SDS011;64298;46.050;38.164;2023-03-26T03:59:38;24.20;;;9.75;;
75684;SDS011;64298;46.050;38.164;2023-03-26T04:02:07;23.50;;;8.85;;
75684;SDS011;64298;46.050;38.164;2023-03-26T04:04:43;26.05;;;9.60;;
75684;SDS011;64298;46.050;38.164;2023-03-26T04:07:13;25.65;;;10.02;;
75684;SDS011;64298;46.050;38.164;2023-03-26T04:10:06;19.63;;;8.60;;
75684;SDS011;64298;46.050;38.164;2023-03-26T04:13:12;20.40;;;8.90;;
75684;SDS011;64298;46.050;38.164;2023-03-26T04:16:08;25.35;;;9.25;;
75684;SDS011;64298;46.050;38.164;2023-03-26T04:18:35;24.75;;;9.43;;
75684;SDS011;64298;46.050;38.164;2023-03-26T04:21:08;23.98;;;9.27;;
75684;SDS011;64298;46.050;38.164;2023-03-26T04:23:37;29.80;;;10.88;;
75684;SDS011;64298;46.050;38.164;2023-03-26T04:26:26;21.23;;;9.25;;
75684;SDS011;64298;46.050;38.164;2023-03-26T04:29:03;22.40;;;9.52;;
75684;SDS011;64298;46.050;38.164;2023-03-26T04:31:31;26.05;;;8.98;;
75684;SDS011;64298;46.050;38.164;2023-03-26T04:34:03;29.13;;;11.02;;
75684;SDS011;64298;46.050;38.164;2023-03-26T04:36:39;26.80;;;9.75;;
75684;SDS011;64298;46.050;38.164;2023-03-26T04:39:08;24.77;;;9.98;;
75684;SDS011;64298;46.050;38.164;2023-03-26T04:41:56;25.23;;;9.30;;
75684;SDS011;64298;46.050;38.164;2023-03-26T04:44:24;23.02;;;8.50;;
75684;SDS011;64298;46.050;38.164;2023-03-26T04:46:58;22.75;;;9.18;;
75684;SDS011;64298;46.050;38.164;2023-03-26T04:49:31;21.45;;;8.82;;
75684;SDS011;64298;46.050;38.164;2023-03-26T04:51:57;28.48;;;10.57;;
75684;SDS011;64298;46.050;38.164;2023-03-26T04:54:45;22.30;;;8.98;;
75684;SDS011;64298;46.050;38.164;2023-03-26T04:57:16;30.13;;;11.02;;
75684;SDS011;64298;46.050;38.164;2023-03-26T05:00:05;28.05;;;9.98;;
75684;SDS011;64298;46.050;38.164;2023-03-26T05:02:57;25.55;;;10.63;;
75684;SDS011;64298;46.050;38.164;2023-03-26T05:05:24;28.27;;;9.95;;
75684;SDS011;64298;46.050;38.164;2023-03-26T05:07:53;22.90;;;10.02;;
75684;SDS011;64298;46.050;38.164;2023-03-26T05:10:20;27.67;;;9.63;;
75684;SDS011;64298;46.050;38.164;2023-03-26T05:12:54;24.85;;;9.48;;
75684;SDS011;64298;46.050;38.164;2023-03-26T05:15:39;20.90;;;9.52;;
75684;SDS011;64298;46.050;38.164;2023-03-26T05:18:11;28.13;;;10.48;;
75684;SDS011;64298;46.050;38.164;2023-03-26T05:20:50;28.05;;;10.27;;
75684;SDS011;64298;46.050;38.164;2023-03-26T05:23:16;29.40;;;10.10;;
75684;SDS011;64298;46.050;38.164;2023-03-26T05:25:48;24.23;;;9.63;;
75684;SDS011;64298;46.050;38.164;2023-03-26T05:28:18;22.10;;;10.00;;
75684;SDS011;64298;46.050;38.164;2023-03-26T05:30:57;29.58;;;11.48;;
75684;SDS011;64298;46.050;38.164;2023-03-26T05:33:26;31.00;;;10.40;;
75684;SDS011;64298;46.050;38.164;2023-03-26T05:36:06;23.10;;;9.85;;
75684;SDS011;64298;46.050;38.164;2023-03-26T05:38:34;23.02;;;9.45;;
75684;SDS011;64298;46.050;38.164;2023-03-26T05:41:04;25.60;;;10.38;;
75684;SDS011;64298;46.050;38.164;2023-03-26T05:43:33;24.45;;;9.85;;
75684;SDS011;64298;46.050;38.164;2023-03-26T05:46:19;27.25;;;10.00;;
75684;SDS011;64298;46.050;38.164;2023-03-26T05:49:05;28.10;;;9.60;;
75684;SDS011;64298;46.050;38.164;2023-03-26T05:51:34;31.52;;;10.48;;
75684;SDS011;64298;46.050;38.164;2023-03-26T05:54:19;22.90;;;9.68;;
75684;SDS011;64298;46.050;38.164;2023-03-26T05:57:04;29.73;;;11.85;;
75684;SDS011;64298;46.050;38.164;2023-03-26T05:59:48;33.75;;;10.93;;
75684;SDS011;64298;46.050;38.164;2023-03-26T06:02:33;30.45;;;10.50;;
75684;SDS011;64298;46.050;38.164;2023-03-26T06:05:33;31.92;;;11.07;;
75684;SDS011;64298;46.050;38.164;2023-03-26T06:08:16;29.25;;;10.45;;
75684;SDS011;64298;46.050;38.164;2023-03-26T06:10:49;28.70;;;11.60;;
75684;SDS011;64298;46.050;38.164;2023-03-26T06:13:15;33.15;;;10.68;;
75684;SDS011;64298;46.050;38.164;2023-03-26T06:15:44;28.50;;;11.20;;
75684;SDS011;64298;46.050;38.164;2023-03-26T06:18:33;29.30;;;10.90;;
75684;SDS011;64298;46.050;38.164;2023-03-26T06:21:22;28.70;;;11.60;;
75684;SDS011;64298;46.050;38.164;2023-03-26T06:23:53;28.35;;;10.57;;
75684;SDS011;64298;46.050;38.164;2023-03-26T06:26:46;26.85;;;10.95;;
75684;SDS011;64298;46.050;38.164;2023-03-26T06:29:18;28.33;;;11.93;;
75684;SDS011;64298;46.050;38.164;2023-03-26T06:31:53;29.63;;;11.45;;
75684;SDS011;64298;46.050;38.164;2023-03-26T06:34:32;26.98;;;10.45;;
75684;SDS011;64298;46.050;38.164;2023-03-26T06:36:58;31.90;;;11.93;;
75684;SDS011;64298;46.050;38.164;2023-03-26T06:39:24;24.27;;;10.43;;
75684;SDS011;64298;46.050;38.164;2023-03-26T06:42:10;30.02;;;10.75;;
75684;SDS011;64298;46.050;38.164;2023-03-26T06:44:53;26.45;;;10.13;;
75684;SDS011;64298;46.050;38.164;2023-03-26T06:47:37;29.98;;;11.65;;
75684;SDS011;64298;46.050;38.164;2023-03-26T06:53:30;25.92;;;9.63;;
75684;SDS011;64298;46.050;38.164;2023-03-26T06:56:15;27.80;;;11.80;;
75684;SDS011;64298;46.050;38.164;2023-03-26T06:59:06;25.55;;;10.30;;
75684;SDS011;64298;46.050;38.164;2023-03-26T07:01:51;28.85;;;10.50;;
75684;SDS011;64298;46.050;38.164;2023-03-26T07:04:35;24.50;;;8.00;;
75684;SDS011;64298;46.050;38.164;2023-03-26T07:07:20;20.05;;;8.57;;
75684;SDS011;64298;46.050;38.164;2023-03-26T07:10:07;22.88;;;8.65;;
75684;SDS011;64298;46.050;38.164;2023-03-26T07:12:44;25.88;;;8.95;;
75684;SDS011;64298;46.050;38.164;2023-03-26T07:15:39;22.67;;;8.25;;
75684;SDS011;64298;46.050;38.164;2023-03-26T07:18:24;23.17;;;9.20;;
75684;SDS011;64298;46.050;38.164;2023-03-26T07:20:51;22.98;;;10.70;;
75684;SDS011;64298;46.050;38.164;2023-03-26T07:23:19;19.92;;;8.65;;
75684;SDS011;64298;46.050;38.164;2023-03-26T07:26:10;17.92;;;8.77;;
75684;SDS011;64298;46.050;38.164;2023-03-26T07:29:10;20.58;;;8.20;;
75684;SDS011;64298;46.050;38.164;2023-03-26T07:31:53;19.63;;;9.50;;
75684;SDS011;64298;46.050;38.164;2023-03-26T07:44:02;19.15;;;8.68;;
75684;SDS011;64298;46.050;38.164;2023-03-26T07:50:12;22.10;;;8.02;;
75684;SDS011;64298;46.050;38.164;2023-03-26T07:53:06;18.95;;;7.88;;
75684;SDS011;64298;46.050;38.164;2023-03-26T07:56:02;24.63;;;8.85;;
75684;SDS011;64298;46.050;38.164;2023-03-26T07:59:13;24.17;;;10.32;;
75684;SDS011;64298;46.050;38.164;2023-03-26T08:02:47;23.30;;;8.95;;
75684;SDS011;64298;46.050;38.164;2023-03-26T08:12:23;22.77;;;8.05;;
75684;SDS011;64298;46.050;38.164;2023-03-26T08:17:29;18.33;;;7.75;;
75684;SDS011;64298;46.050;38.164;2023-03-26T08:26:04;24.13;;;8.60;;
75684;SDS011;64298;46.050;38.164;2023-03-26T08:31:10;20.23;;;7.25;;
75684;SDS011;64298;46.050;38.164;2023-03-26T08:33:37;27.30;;;9.38;;
75684;SDS011;64298;46.050;38.164;2023-03-26T08:36:07;17.50;;;8.38;;
75684;SDS011;64298;46.050;38.164;2023-03-26T08:38:33;20.58;;;7.85;;
75684;SDS011;64298;46.050;38.164;2023-03-26T08:57:45;22.42;;;8.60;;
75684;SDS011;64298;46.050;38.164;2023-03-26T09:06:11;31.33;;;11.10;;
75684;SDS011;64298;46.050;38.164;2023-03-26T09:08:59;27.67;;;10.38;;
75684;SDS011;64298;46.050;38.164;2023-03-26T09:17:50;35.22;;;10.80;;
75684;SDS011;64298;46.050;38.164;2023-03-26T09:32:21;26.42;;;9.90;;
75684;SDS011;64298;46.050;38.164;2023-03-26T09:35:27;30.25;;;9.88;;
75684;SDS011;64298;46.050;38.164;2023-03-26T09:40:54;29.30;;;8.73;;
75684;SDS011;64298;46.050;38.164;2023-03-26T09:49:47;20.08;;;7.22;;
75684;SDS011;64298;46.050;38.164;2023-03-26T09:58:11;42.83;;;17.48;;
75684;SDS011;64298;46.050;38.164;2023-03-26T10:01:50;25.33;;;7.97;;
75684;SDS011;64298;46.050;38.164;2023-03-26T10:04:32;28.33;;;9.35;;
75684;SDS011;64298;46.050;38.164;2023-03-26T10:13:04;32.63;;;10.38;;
75684;SDS011;64298;46.050;38.164;2023-03-26T10:15:49;28.92;;;9.55;;
75684;SDS011;64298;46.050;38.164;2023-03-26T10:18:33;33.42;;;10.82;;
75684;SDS011;64298;46.050;38.164;2023-03-26T10:32:21;25.75;;;10.68;;
75684;SDS011;64298;46.050;38.164;2023-03-26T10:38:12;20.45;;;8.95;;
75684;SDS011;64298;46.050;38.164;2023-03-26T10:44:14;22.15;;;9.35;;
75684;SDS011;64298;46.050;38.164;2023-03-26T10:53:03;17.67;;;7.50;;
75684;SDS011;64298;46.050;38.164;2023-03-26T10:55:56;19.08;;;6.93;;
75684;SDS011;64298;46.050;38.164;2023-03-26T10:58:35;13.45;;;6.22;;
75684;SDS011;64298;46.050;38.164;2023-03-26T11:01:04;9.93;;;5.00;;
75684;SDS011;64298;46.050;38.164;2023-03-26T11:03:50;14.93;;;6.35;;
75684;SDS011;64298;46.050;38.164;2023-03-26T11:32:36;11.48;;;5.85;;
75684;SDS011;64298;46.050;38.164;2023-03-26T11:37:50;15.52;;;6.88;;
75684;SDS011;64298;46.050;38.164;2023-03-26T11:40:52;13.55;;;5.55;;
75684;SDS011;64298;46.050;38.164;2023-03-26T11:43:34;9.52;;;4.65;;
75684;SDS011;64298;46.050;38.164;2023-03-26T11:46:05;10.43;;;5.30;;
75684;SDS011;64298;46.050;38.164;2023-03-26T11:48:39;9.18;;;4.32;;
75684;SDS011;64298;46.050;38.164;2023-03-26T11:51:35;11.57;;;5.63;;
75684;SDS011;64298;46.050;38.164;2023-03-26T11:54:01;11.82;;;4.53;;
75684;SDS011;64298;46.050;38.164;2023-03-26T11:56:32;14.85;;;6.25;;
75684;SDS011;64298;46.050;38.164;2023-03-26T11:59:43;18.65;;;6.40;;
75684;SDS011;64298;46.050;38.164;2023-03-26T12:01:50;14.55;;;5.75;;
75684;SDS011;64298;46.050;38.164;2023-03-26T12:04:40;15.55;;;6.15;;
75684;SDS011;64298;46.050;38.164;2023-03-26T12:07:21;13.20;;;6.10;;
75684;SDS011;64298;46.050;38.164;2023-03-26T12:09:58;13.07;;;6.32;;
75684;SDS011;64298;46.050;38.164;2023-03-26T12:12:32;11.23;;;5.40;;
75684;SDS011;64298;46.050;38.164;2023-03-26T12:15:03;15.68;;;5.72;;
75684;SDS011;64298;46.050;38.164;2023-03-26T12:17:31;9.32;;;4.05;;
75684;SDS011;64298;46.050;38.164;2023-03-26T12:19:59;12.38;;;5.25;;
75684;SDS011;64298;46.050;38.164;2023-03-26T12:25:01;11.48;;;4.75;;
75684;SDS011;64298;46.050;38.164;2023-03-26T12:27:43;22.83;;;6.93;;
75684;SDS011;64298;46.050;38.164;2023-03-26T12:30:18;6.05;;;3.47;;
75684;SDS011;64298;46.050;38.164;2023-03-26T12:32:59;12.13;;;5.00;;
75684;SDS011;64298;46.050;38.164;2023-03-26T12:35:30;13.02;;;5.50;;
75684;SDS011;64298;46.050;38.164;2023-03-26T12:41:11;7.63;;;3.78;;
75684;SDS011;64298;46.050;38.164;2023-03-26T12:43:42;10.85;;;4.78;;
75684;SDS011;64298;46.050;38.164;2023-03-26T12:46:30;12.93;;;4.22;;
75684;SDS011;64298;46.050;38.164;2023-03-26T12:48:59;12.38;;;5.80;;
75684;SDS011;64298;46.050;38.164;2023-03-26T12:51:38;11.73;;;4.88;;
75684;SDS011;64298;46.050;38.164;2023-03-26T12:54:20;11.77;;;5.28;;
75684;SDS011;64298;46.050;38.164;2023-03-26T13:05:06;10.82;;;3.97;;
75684;SDS011;64298;46.050;38.164;2023-03-26T13:07:58;10.57;;;3.33;;
75684;SDS011;64298;46.050;38.164;2023-03-26T13:10:52;12.23;;;4.28;;
75684;SDS011;64298;46.050;38.164;2023-03-26T13:22:26;9.02;;;3.65;;
75684;SDS011;64298;46.050;38.164;2023-03-26T13:28:12;8.15;;;2.95;;
75684;SDS011;64298;46.050;38.164;2023-03-26T13:33:42;5.57;;;2.75;;
75684;SDS011;64298;46.050;38.164;2023-03-26T13:47:58;12.65;;;3.83;;
75684;SDS011;64298;46.050;38.164;2023-03-26T13:50:29;7.88;;;3.53;;
75684;SDS011;64298;46.050;38.164;2023-03-26T13:55:46;7.63;;;2.67;;
75684;SDS011;64298;46.050;38.164;2023-03-26T14:12:17;8.20;;;2.67;;
75684;SDS011;64298;46.050;38.164;2023-03-26T14:15:09;8.45;;;3.13;;
75684;SDS011;64298;46.050;38.164;2023-03-26T14:43:48;8.23;;;3.28;;
75684;SDS011;64298;46.050;38.164;2023-03-26T14:53:27;7.57;;;2.83;;
75684;SDS011;64298;46.050;38.164;2023-03-26T14:56:10;7.57;;;3.35;;
75684;SDS011;64298;46.050;38.164;2023-03-26T15:07:21;9.73;;;3.65;;
75684;SDS011;64298;46.050;38.164;2023-03-26T15:16:23;9.00;;;3.47;;
75684;SDS011;64298;46.050;38.164;2023-03-26T15:19:33;11.38;;;3.38;;
75684;SDS011;64298;46.050;38.164;2023-03-26T15:22:34;7.22;;;3.35;;
75684;SDS011;64298;46.050;38.164;2023-03-26T15:28:45;8.07;;;3.00;;
75684;SDS011;64298;46.050;38.164;2023-03-26T15:34:40;11.52;;;3.67;;
75684;SDS011;64298;46.050;38.164;2023-03-26T15:43:12;9.35;;;2.90;;
75684;SDS011;64298;46.050;38.164;2023-03-26T15:49:13;8.00;;;3.47;;
75684;SDS011;64298;46.050;38.164;2023-03-26T15:51:54;11.82;;;4.50;;
75684;SDS011;64298;46.050;38.164;2023-03-26T15:54:32;6.53;;;3.45;;
75684;SDS011;64298;46.050;38.164;2023-03-26T15:59:52;6.75;;;3.20;;
75684;SDS011;64298;46.050;38.164;2023-03-26T16:02:39;9.20;;;2.95;;
75684;SDS011;64298;46.050;38.164;2023-03-26T16:08:02;8.38;;;3.42;;
75684;SDS011;64298;46.050;38.164;2023-03-26T16:10:48;9.35;;;3.67;;
75684;SDS011;64298;46.050;38.164;2023-03-26T16:26:35;8.32;;;2.78;;
75684;SDS011;64298;46.050;38.164;2023-03-26T16:34:37;8.82;;;3.20;;
75684;SDS011;64298;46.050;38.164;2023-03-26T16:42:50;7.85;;;3.30;;
75684;SDS011;64298;46.050;38.164;2023-03-26T16:45:54;17.98;;;4.18;;
75684;SDS011;64298;46.050;38.164;2023-03-26T16:48:56;8.77;;;3.45;;
75684;SDS011;64298;46.050;38.164;2023-03-26T16:56:52;13.05;;;3.75;;
75684;SDS011;64298;46.050;38.164;2023-03-26T17:07:45;10.90;;;3.35;;
75684;SDS011;64298;46.050;38.164;2023-03-26T17:10:20;9.75;;;3.90;;
75684;SDS011;64298;46.050;38.164;2023-03-26T17:12:59;6.60;;;3.10;;
75684;SDS011;64298;46.050;38.164;2023-03-26T17:15:37;9.30;;;1.90;;
75684;SDS011;64298;46.050;38.164;2023-03-26T17:18:26;7.13;;;3.30;;
75684;SDS011;64298;46.050;38.164;2023-03-26T17:40:25;7.63;;;3.65;;
75684;SDS011;64298;46.050;38.164;2023-03-26T17:43:01;12.85;;;6.38;;
75684;SDS011;64298;46.050;38.164;2023-03-26T17:45:33;15.50;;;4.35;;
75684;SDS011;64298;46.050;38.164;2023-03-26T17:48:14;9.45;;;3.25;;
75684;SDS011;64298;46.050;38.164;2023-03-26T17:51:00;7.78;;;3.13;;
75684;SDS011;64298;46.050;38.164;2023-03-26T17:53:31;8.13;;;3.45;;
75684;SDS011;64298;46.050;38.164;2023-03-26T17:56:00;7.93;;;3.53;;
75684;SDS011;64298;46.050;38.164;2023-03-26T17:58:49;14.18;;;4.15;;
75684;SDS011;64298;46.050;38.164;2023-03-26T18:01:38;10.90;;;3.58;;
75684;SDS011;64298;46.050;38.164;2023-03-26T18:04:17;7.95;;;2.80;;
75684;SDS011;64298;46.050;38.164;2023-03-26T18:09:46;7.68;;;3.47;;
75684;SDS011;64298;46.050;38.164;2023-03-26T18:15:27;11.82;;;3.67;;
75684;SDS011;64298;46.050;38.164;2023-03-26T18:18:06;9.32;;;3.40;;
75684;SDS011;64298;46.050;38.164;2023-03-26T18:20:55;6.70;;;3.20;;
75684;SDS011;64298;46.050;38.164;2023-03-26T18:23:29;8.43;;;3.53;;
75684;SDS011;64298;46.050;38.164;2023-03-26T18:26:32;9.57;;;3.65;;
75684;SDS011;64298;46.050;38.164;2023-03-26T18:29:28;10.50;;;3.63;;
75684;SDS011;64298;46.050;38.164;2023-03-26T18:34:46;8.80;;;3.65;;
75684;SDS011;64298;46.050;38.164;2023-03-26T18:37:23;9.02;;;3.88;;
75684;SDS011;64298;46.050;38.164;2023-03-26T18:40:12;8.00;;;3.70;;
75684;SDS011;64298;46.050;38.164;2023-03-26T18:42:53;10.30;;;3.92;;
75684;SDS011;64298;46.050;38.164;2023-03-26T18:47:48;11.73;;;4.10;;
75684;SDS011;64298;46.050;38.164;2023-03-26T18:50:21;9.55;;;3.85;;
75684;SDS011;64298;46.050;38.164;2023-03-26T18:53:20;8.98;;;4.28;;
75684;SDS011;64298;46.050;38.164;2023-03-26T18:55:48;7.60;;;3.92;;
75684;SDS011;64298;46.050;38.164;2023-03-26T19:00:53;9.82;;;3.55;;
75684;SDS011;64298;46.050;38.164;2023-03-26T19:05:53;8.63;;;3.85;;
75684;SDS011;64298;46.050;38.164;2023-03-26T19:08:21;12.27;;;4.70;;
75684;SDS011;64298;46.050;38.164;2023-03-26T19:10:49;13.43;;;4.63;;
75684;SDS011;64298;46.050;38.164;2023-03-26T19:13:18;10.75;;;4.85;;
75684;SDS011;64298;46.050;38.164;2023-03-26T19:15:46;12.88;;;5.70;;
75684;SDS011;64298;46.050;38.164;2023-03-26T19:18:35;13.25;;;5.40;;
75684;SDS011;64298;46.050;38.164;2023-03-26T19:21:05;14.18;;;5.20;;
75684;SDS011;64298;46.050;38.164;2023-03-26T19:23:36;13.85;;;5.60;;
75684;SDS011;64298;46.050;38.164;2023-03-26T19:26:06;13.07;;;5.75;;
75684;SDS011;64298;46.050;38.164;2023-03-26T19:28:37;12.65;;;5.93;;
75684;SDS011;64298;46.050;38.164;2023-03-26T19:31:08;18.00;;;6.40;;
75684;SDS011;64298;46.050;38.164;2023-03-26T19:33:38;12.52;;;5.45;;
75684;SDS011;64298;46.050;38.164;2023-03-26T19:41:33;11.35;;;4.28;;
75684;SDS011;64298;46.050;38.164;2023-03-26T19:44:15;11.45;;;4.65;;
75684;SDS011;64298;46.050;38.164;2023-03-26T19:46:49;11.75;;;4.50;;
75684;SDS011;64298;46.050;38.164;2023-03-26T19:49:28;15.85;;;5.05;;
75684;SDS011;64298;46.050;38.164;2023-03-26T19:57:33;10.48;;;5.10;;
75684;SDS011;64298;46.050;38.164;2023-03-26T20:00:01;13.90;;;5.18;;
75684;SDS011;64298;46.050;38.164;2023-03-26T20:02:30;16.80;;;4.90;;
75684;SDS011;64298;46.050;38.164;2023-03-26T20:04:55;11.20;;;5.18;;
75684;SDS011;64298;46.050;38.164;2023-03-26T20:07:22;13.68;;;5.15;;
75684;SDS011;64298;46.050;38.164;2023-03-26T20:09:53;13.88;;;5.03;;
75684;SDS011;64298;46.050;38.164;2023-03-26T20:12:19;13.40;;;5.20;;
75684;SDS011;64298;46.050;38.164;2023-03-26T20:14:46;12.43;;;5.63;;
75684;SDS011;64298;46.050;38.164;2023-03-26T20:17:14;12.40;;;5.05;;
75684;SDS011;64298;46.050;38.164;2023-03-26T20:19:44;12.98;;;4.95;;
75684;SDS011;64298;46.050;38.164;2023-03-26T20:22:14;12.30;;;5.15;;
75684;SDS011;64298;46.050;38.164;2023-03-26T20:24:44;11.68;;;4.97;;
75684;SDS011;64298;46.050;38.164;2023-03-26T20:27:10;11.40;;;4.95;;
75684;SDS011;64298;46.050;38.164;2023-03-26T20:29:38;14.40;;;5.50;;
75684;SDS011;64298;46.050;38.164;2023-03-26T20:32:19;9.55;;;4.95;;
75684;SDS011;64298;46.050;38.164;2023-03-26T20:34:47;13.20;;;5.18;;
75684;SDS011;64298;46.050;38.164;2023-03-26T20:37:14;12.77;;;5.35;;
75684;SDS011;64298;46.050;38.164;2023-03-26T20:39:41;14.82;;;5.60;;
75684;SDS011;64298;46.050;38.164;2023-03-26T20:42:08;12.27;;;5.53;;
75684;SDS011;64298;46.050;38.164;2023-03-26T20:44:36;11.80;;;5.63;;
75684;SDS011;64298;46.050;38.164;2023-03-26T20:47:02;13.05;;;5.72;;
75684;SDS011;64298;46.050;38.164;2023-03-26T20:49:47;15.18;;;5.50;;
75684;SDS011;64298;46.050;38.164;2023-03-26T20:52:13;14.02;;;6.35;;
75684;SDS011;64298;46.050;38.164;2023-03-26T20:54:39;12.90;;;5.85;;
75684;SDS011;64298;46.050;38.164;2023-03-26T20:57:07;13.77;;;6.00;;
75684;SDS011;64298;46.050;38.164;2023-03-26T20:59:35;15.20;;;6.20;;
75684;SDS011;64298;46.050;38.164;2023-03-26T21:02:01;16.33;;;6.43;;
75684;SDS011;64298;46.050;38.164;2023-03-26T21:04:27;15.85;;;5.80;;
75684;SDS011;64298;46.050;38.164;2023-03-26T21:06:53;13.15;;;5.93;;
75684;SDS011;64298;46.050;38.164;2023-03-26T21:09:20;13.93;;;4.50;;
75684;SDS011;64298;46.050;38.164;2023-03-26T21:14:33;6.55;;;1.70;;
75684;SDS011;64298;46.050;38.164;2023-03-26T21:17:07;5.43;;;2.38;;
75684;SDS011;64298;46.050;38.164;2023-03-26T21:19:41;3.88;;;1.45;;
75684;SDS011;64298;46.050;38.164;2023-03-26T21:24:45;3.70;;;1.35;;
75684;SDS011;64298;46.050;38.164;2023-03-26T21:30:10;7.10;;;1.55;;
75684;SDS011;64298;46.050;38.164;2023-03-26T21:32:39;4.25;;;1.63;;
75684;SDS011;64298;46.050;38.164;2023-03-26T21:35:05;6.32;;;1.90;;
75684;SDS011;64298;46.050;38.164;2023-03-26T21:37:32;3.85;;;1.58;;
75684;SDS011;64298;46.050;38.164;2023-03-26T21:39:59;4.72;;;2.08;;
75684;SDS011;64298;46.050;38.164;2023-03-26T21:42:35;5.65;;;1.52;;
75684;SDS011;64298;46.050;38.164;2023-03-26T21:45:01;7.28;;;2.00;;
75684;SDS011;64298;46.050;38.164;2023-03-26T21:47:28;3.95;;;1.40;;
75684;SDS011;64298;46.050;38.164;2023-03-26T21:49:54;4.53;;;1.70;;